London City Airport

EGLC · 英格兰, 英国

罗盘
风向 的 风向 220° 倫敦城市機場 9/27
风: 8 kt, 3 beaufort

5 kt

6 kt
改变
0 ft 1.000 2.000 3.000 4.000 5.000
未检测到零云
METAR EGLC 172020Z AUTO 22008KT 9999 NCD 20/13 Q1021

METAR 倫敦城市機場 - EGLC/LCY

倫敦城市機場是,英国中的中型机场。 该机场位于纬度51,50525和经度0,05503。 该机场有一条跑道: 9/27. 本场的ICAO机场代码为EGLC。 该机场的IATA代码为LCY。 机场在London FIR中。

该航空气象观测是针对倫敦城市機場在2024年7月17日 21:20, 当地时间进行的。

机场观察

风向为220°,速度为8 kt。

可见度为10 km 或者更多。

有未检测到零云。 没有观察到天花板。

温度和风寒是20 °C。 露点为13 °C,相对湿度为64%。 海平面上的气压为1021 hPa (QNH)。

白天

今天,太阳从05:03升起,在21:08降落。 这适用于倫敦城市機場,世界夏令时可能有所不同。 当地时间与世界标准时间之间的时差为+1 小时。 夏令时目前正在进行中。

公司介绍

我们没有关于这个机场的公司信息。

体会

到Vliegles.nl去找飞行课程,跳伞和其他飞行体验。 浏览页面,了解倫敦城市機場附近所有可用的活动。 你也可以使用搜索功能来寻找你所在地附近的特定飞行课程、跳伞或其他飞行体验。

请勿用于飞行规划
机场可能关闭或需要事先获得许可。 真正的航向和跑道末端的坐标可能是一个估计值。 磁性航向是使用WMM2020模型从真实航向计算出来的。

跑道

Id 标题 侧风 逆风 侧风 %
9/27 093°-273° 6 kt 5 kt 80 %

逆风成分最大的方向会被突出显示,并用于横风计算。 这并不一定意味着这个方向在使用。

乌云

- NCD 未检测到零云

温度 & 天气

温度 20 °C
露点 13 °C
相对湿度 64%
Kp-index 0 (0-9)

白天

日出
05:03 (7:30)
中午
13:06
日落
21:08

小工具

你想在你的网站上有一个关于倫敦城市機場的当前航空天气(METAR)的小部件吗?

显示HTML代码
报告变更